Time;durP1;ratioP1;P1;durP2;ratioP2;P2;SDS_P1;SDS_P2;PMS_P1;PMS_P2;Temp;Humidity;BMP_temperature;BMP_pressure;BME280_temperature;BME280_humidity;BME280_pressure;Samples;Min_cycle;Max_cycle;Signal;HPM_P1;HPM_P2
2023/07/30 00:01:32;;;;;;;7.18;4.55;;;16.20;99.90;;;;;;5030055;28;20041;-65
2023/07/30 00:03:58;;;;;;;4.72;4.30;;;16.20;99.90;;;;;;5035207;28;20024;-64
2023/07/30 00:06:24;;;;;;;5.25;4.75;;;16.20;99.90;;;;;;5032688;28;20045;-64
2023/07/30 00:08:50;;;;;;;5.38;4.20;;;16.20;99.90;;;;;;5032374;28;20034;-64
2023/07/30 00:11:15;;;;;;;5.07;4.40;;;16.20;99.90;;;;;;5035062;28;20383;-63
2023/07/30 00:13:41;;;;;;;5.20;4.70;;;16.20;99.90;;;;;;5025743;28;20321;-64
2023/07/30 00:16:06;;;;;;;6.43;4.82;;;16.20;99.90;;;;;;5022752;28;20051;-63
2023/07/30 00:18:32;;;;;;;5.25;4.75;;;16.20;99.90;;;;;;5027806;28;20033;-64
2023/07/30 00:20:57;;;;;;;4.47;4.00;;;16.30;99.90;;;;;;5026988;28;20396;-63
2023/07/30 00:23:23;;;;;;;4.85;4.43;;;16.20;99.90;;;;;;5035156;28;20029;-63
2023/07/30 00:25:48;;;;;;;5.57;5.07;;;16.30;99.90;;;;;;5034813;28;20021;-64
2023/07/30 00:28:14;;;;;;;6.72;4.85;;;16.30;99.90;;;;;;5033969;28;20084;-64
2023/07/30 00:30:40;;;;;;;6.32;5.75;;;16.30;99.90;;;;;;5024399;28;20029;-64
2023/07/30 00:33:05;;;;;;;5.82;5.30;;;16.30;99.90;;;;;;5027588;28;20029;-64
2023/07/30 00:35:33;;;;;;;6.32;5.13;;;16.30;99.90;;;;;;5029278;28;20048;-63
2023/07/30 00:37:58;;;;;;;10.77;5.28;;;16.30;99.90;;;;;;5027339;28;20017;-64
2023/07/30 00:40:24;;;;;;;6.00;5.38;;;16.30;99.90;;;;;;5029963;28;20036;-63
2023/07/30 00:42:49;;;;;;;6.45;5.85;;;16.30;99.90;;;;;;5026340;28;20029;-64
2023/07/30 00:45:15;;;;;;;6.03;5.32;;;16.40;99.90;;;;;;5022843;28;20121;-64
2023/07/30 00:47:41;;;;;;;6.32;5.72;;;16.30;99.90;;;;;;5027360;28;20025;-64
2023/07/30 00:50:08;;;;;;;10.18;5.43;;;16.40;99.90;;;;;;5027389;28;20022;-64
2023/07/30 00:52:34;;;;;;;7.68;5.70;;;16.40;99.90;;;;;;5022497;28;20025;-63
2023/07/30 00:55:02;;;;;;;6.38;5.70;;;16.40;99.90;;;;;;5019802;28;20389;-64
2023/07/30 00:57:29;;;;;;;5.88;5.10;;;16.40;99.90;;;;;;5022957;28;20036;-63
2023/07/30 00:59:56;;;;;;;5.70;4.32;;;16.40;99.90;;;;;;5017195;28;20044;-64
2023/07/30 01:02:22;;;;;;;5.63;5.00;;;16.40;99.90;;;;;;5029242;28;20037;-63
2023/07/30 01:04:48;;;;;;;5.88;4.13;;;16.40;99.90;;;;;;5021356;28;20033;-64
2023/07/30 01:07:13;;;;;;;4.15;3.72;;;16.40;99.90;;;;;;5020494;28;20028;-63
2023/07/30 01:09:39;;;;;;;3.80;3.45;;;16.40;99.90;;;;;;5025536;28;20443;-63
2023/07/30 01:12:06;;;;;;;3.65;3.38;;;16.40;99.90;;;;;;5029587;28;20025;-63
2023/07/30 01:14:32;;;;;;;3.90;3.50;;;16.40;99.90;;;;;;5027956;28;20029;-64
2023/07/30 01:16:58;;;;;;;4.95;3.60;;;16.40;99.90;;;;;;5026982;28;20014;-63
2023/07/30 01:19:23;;;;;;;5.45;3.80;;;16.40;99.90;;;;;;5044285;28;20025;-64
2023/07/30 01:21:49;;;;;;;4.32;3.80;;;16.30;99.90;;;;;;5027495;28;20033;-63
2023/07/30 01:24:15;;;;;;;4.60;4.20;;;16.30;99.90;;;;;;5025836;28;20022;-64
2023/07/30 01:26:54;;;;;;;4.57;4.20;;;16.30;99.90;;;;;;5030456;28;20033;-64
2023/07/30 01:29:30;;;;;;;4.63;3.80;;;16.30;99.90;;;;;;5026775;28;20039;-64
2023/07/30 01:31:57;;;;;;;3.85;3.33;;;16.30;99.90;;;;;;5023115;28;20081;-63
2023/07/30 01:34:27;;;;;;;7.60;3.55;;;16.30;99.90;;;;;;5027977;28;20047;-64
2023/07/30 01:36:54;;;;;;;3.97;3.03;;;16.30;99.90;;;;;;5029532;28;20431;-63
2023/07/30 01:39:20;;;;;;;6.35;3.75;;;16.30;99.90;;;;;;5031337;28;20033;-63
2023/07/30 01:41:46;;;;;;;2.70;2.50;;;16.20;99.90;;;;;;5031824;28;20052;-63
2023/07/30 01:44:11;;;;;;;3.60;3.30;;;16.20;99.90;;;;;;5041385;28;20484;-63
2023/07/30 01:46:37;;;;;;;2.78;2.47;;;16.20;99.90;;;;;;5024954;28;20488;-64
2023/07/30 01:49:03;;;;;;;4.03;3.45;;;16.10;99.90;;;;;;5030567;28;20122;-64
2023/07/30 01:51:28;;;;;;;3.88;2.75;;;16.10;99.90;;;;;;5028724;28;20033;-64
2023/07/30 01:53:54;;;;;;;2.60;2.40;;;16.10;99.90;;;;;;5032976;28;20036;-63
2023/07/30 01:56:20;;;;;;;3.47;3.03;;;16.00;99.90;;;;;;5026151;28;20033;-63
2023/07/30 01:58:45;;;;;;;2.67;2.28;;;16.00;99.90;;;;;;5026531;28;20034;-64
2023/07/30 02:01:11;;;;;;;3.58;2.60;;;16.00;99.90;;;;;;5025574;28;20073;-65
2023/07/30 02:03:36;;;;;;;3.78;3.00;;;15.90;99.90;;;;;;5026718;28;20028;-62
2023/07/30 02:06:02;;;;;;;3.85;3.40;;;15.90;99.90;;;;;;5024318;28;20552;-63
2023/07/30 02:08:27;;;;;;;3.50;2.70;;;15.90;99.90;;;;;;5038630;28;20439;-63
2023/07/30 02:10:59;;;;;;;3.15;2.85;;;15.80;99.90;;;;;;5025995;28;20076;-64
2023/07/30 02:13:25;;;;;;;4.18;3.00;;;15.80;99.90;;;;;;5036716;28;20025;-65
2023/07/30 02:15:51;;;;;;;4.00;3.33;;;15.80;99.90;;;;;;5024114;28;20041;-63
2023/07/30 02:18:17;;;;;;;4.40;3.10;;;15.80;99.90;;;;;;5020707;28;20279;-65
2023/07/30 02:20:42;;;;;;;4.93;3.38;;;15.70;99.90;;;;;;5025623;28;20039;-63
2023/07/30 02:23:08;;;;;;;4.20;3.28;;;15.70;99.90;;;;;;5019486;28;20495;-64
2023/07/30 02:25:34;;;;;;;4.88;3.25;;;15.70;99.90;;;;;;5025827;28;20120;-63
2023/07/30 02:28:01;;;;;;;3.20;2.90;;;15.70;99.90;;;;;;5026100;28;20548;-65
2023/07/30 02:30:27;;;;;;;4.30;3.10;;;15.60;99.90;;;;;;5025335;28;20053;-64
2023/07/30 02:32:53;;;;;;;3.17;2.88;;;15.60;99.90;;;;;;5024131;28;20018;-64
2023/07/30 02:35:18;;;;;;;3.28;2.97;;;15.60;99.90;;;;;;5026676;28;20033;-63
2023/07/30 02:37:44;;;;;;;4.63;3.22;;;15.50;99.90;;;;;;5029421;28;20075;-64
2023/07/30 02:40:10;;;;;;;3.90;3.60;;;15.60;99.90;;;;;;5029815;28;20494;-63
2023/07/30 02:42:35;;;;;;;3.67;3.33;;;15.50;99.90;;;;;;5029248;28;20035;-62
2023/07/30 02:45:01;;;;;;;4.75;4.20;;;15.50;99.90;;;;;;5028287;28;20029;-64
2023/07/30 02:47:26;;;;;;;4.30;3.90;;;15.40;99.90;;;;;;5029501;28;20121;-65
2023/07/30 02:49:53;;;;;;;4.43;3.97;;;15.40;99.90;;;;;;5025834;28;20018;-65
2023/07/30 02:52:18;;;;;;;4.18;3.88;;;15.50;99.90;;;;;;5022381;28;20399;-64
2023/07/30 02:54:44;;;;;;;5.53;4.20;;;15.40;99.90;;;;;;5032544;28;20029;-63
2023/07/30 02:57:11;;;;;;;4.10;3.70;;;15.40;99.90;;;;;;5035155;28;20134;-65
2023/07/30 02:59:37;;;;;;;5.63;4.97;;;15.40;99.90;;;;;;5037553;28;20037;-65
2023/07/30 03:02:04;;;;;;;4.80;4.40;;;15.40;99.90;;;;;;5041461;28;20034;-65
2023/07/30 03:04:30;;;;;;;5.40;4.90;;;15.40;99.90;;;;;;5037521;28;20052;-63
2023/07/30 03:06:56;;;;;;;5.47;4.45;;;15.40;99.90;;;;;;5038838;28;20055;-63
2023/07/30 03:09:22;;;;;;;5.28;4.47;;;15.40;99.90;;;;;;5040036;28;20768;-63
2023/07/30 03:11:49;;;;;;;5.95;3.88;;;15.40;99.90;;;;;;5034952;28;20057;-64
2023/07/30 03:14:15;;;;;;;5.85;4.70;;;15.40;99.90;;;;;;5030142;28;20037;-64
2023/07/30 03:16:40;;;;;;;6.68;4.43;;;15.40;99.90;;;;;;5032342;28;20030;-63
2023/07/30 03:19:06;;;;;;;6.20;5.00;;;15.30;99.90;;;;;;5035061;28;20032;-64
2023/07/30 03:21:31;;;;;;;5.38;4.88;;;15.30;99.90;;;;;;5037058;28;20855;-64
2023/07/30 03:23:57;;;;;;;5.40;4.88;;;15.30;99.90;;;;;;5030739;28;20036;-65
2023/07/30 03:26:23;;;;;;;5.10;4.60;;;15.30;99.90;;;;;;5033956;28;20030;-65
2023/07/30 03:28:48;;;;;;;8.95;5.38;;;15.30;99.90;;;;;;5028997;28;20021;-64
2023/07/30 03:31:14;;;;;;;4.97;3.97;;;15.20;99.90;;;;;;5027276;28;20575;-66
2023/07/30 03:33:43;;;;;;;4.72;4.25;;;15.20;99.90;;;;;;5027517;28;20036;-64
2023/07/30 03:36:15;;;;;;;6.07;5.05;;;15.20;99.90;;;;;;5036804;28;20087;-64
2023/07/30 03:38:42;;;;;;;5.13;4.38;;;15.20;99.90;;;;;;5032104;28;20083;-65
2023/07/30 03:41:08;;;;;;;6.50;5.03;;;15.20;99.90;;;;;;5028590;28;20041;-66
2023/07/30 03:43:34;;;;;;;5.63;4.38;;;15.10;99.90;;;;;;5028261;28;20613;-65
2023/07/30 03:46:00;;;;;;;5.05;4.55;;;15.10;99.90;;;;;;5033124;28;20017;-65
2023/07/30 03:48:25;;;;;;;6.60;4.97;;;15.10;99.90;;;;;;5029794;28;20172;-65
2023/07/30 03:50:55;;;;;;;4.75;4.30;;;15.10;99.90;;;;;;5028422;28;20104;-65
2023/07/30 03:53:21;;;;;;;7.18;5.35;;;15.00;99.90;;;;;;5032285;28;20387;-65
2023/07/30 03:55:47;;;;;;;5.45;4.95;;;15.00;99.90;;;;;;5030700;28;20576;-65
2023/07/30 03:58:12;;;;;;;5.43;4.88;;;15.00;99.90;;;;;;5026656;28;20104;-66
2023/07/30 04:00:38;;;;;;;5.80;5.30;;;15.00;99.90;;;;;;5027074;28;20040;-65
2023/07/30 04:03:03;;;;;;;6.07;5.50;;;15.00;99.90;;;;;;5027992;28;20033;-65
2023/07/30 04:05:30;;;;;;;5.88;5.30;;;15.00;99.90;;;;;;5030632;28;20063;-63
2023/07/30 04:07:56;;;;;;;5.82;5.22;;;15.00;99.90;;;;;;5026838;28;20022;-64
2023/07/30 04:10:21;;;;;;;8.55;4.93;;;15.00;99.90;;;;;;5025178;28;20025;-65
2023/07/30 04:12:47;;;;;;;6.28;5.68;;;15.00;99.90;;;;;;5027440;28;20483;-65
2023/07/30 04:15:12;;;;;;;7.65;5.90;;;14.90;99.90;;;;;;5027411;28;20100;-67
2023/07/30 04:17:38;;;;;;;6.40;5.50;;;14.90;99.90;;;;;;5026535;28;20276;-64
2023/07/30 04:20:04;;;;;;;5.65;4.75;;;14.90;99.90;;;;;;5025944;28;20083;-64
2023/07/30 04:22:30;;;;;;;5.70;5.20;;;15.00;99.90;;;;;;5026869;28;20022;-64
2023/07/30 04:24:56;;;;;;;7.63;6.00;;;15.00;99.90;;;;;;5020433;28;20450;-65
2023/07/30 04:27:22;;;;;;;8.73;7.10;;;15.00;99.90;;;;;;5027564;28;20036;-64
2023/07/30 04:29:47;;;;;;;6.35;5.75;;;15.00;99.90;;;;;;5026637;28;20029;-65
2023/07/30 04:32:14;;;;;;;8.05;5.53;;;15.00;99.90;;;;;;5025377;28;20029;-65
2023/07/30 04:34:40;;;;;;;6.45;5.85;;;15.00;99.90;;;;;;5026260;28;20453;-66
2023/07/30 04:37:06;;;;;;;7.22;6.53;;;15.00;99.90;;;;;;5028042;28;20057;-66
2023/07/30 04:39:38;;;;;;;7.75;6.95;;;15.00;99.90;;;;;;5023988;28;20029;-65
2023/07/30 04:42:03;;;;;;;8.98;6.47;;;15.10;99.90;;;;;;5029974;28;20057;-64
2023/07/30 04:44:29;;;;;;;9.77;8.00;;;15.10;99.90;;;;;;5025236;28;20022;-64
2023/07/30 04:46:54;;;;;;;7.00;6.30;;;15.10;99.90;;;;;;5029130;28;20547;-64
2023/07/30 04:49:20;;;;;;;7.72;5.68;;;15.10;99.90;;;;;;5021839;28;20159;-65
2023/07/30 04:51:46;;;;;;;9.93;7.22;;;15.10;99.90;;;;;;5029739;28;20095;-64
2023/07/30 04:54:11;;;;;;;10.80;6.95;;;15.20;99.90;;;;;;5023698;28;20035;-65
2023/07/30 04:56:37;;;;;;;8.32;6.75;;;15.20;99.90;;;;;;5031420;28;20535;-65
2023/07/30 04:59:03;;;;;;;9.38;6.68;;;15.20;99.90;;;;;;5027005;28;20029;-64
2023/07/30 05:01:29;;;;;;;10.18;8.07;;;15.30;99.90;;;;;;5029095;28;20202;-65
2023/07/30 05:03:54;;;;;;;9.30;7.13;;;15.30;99.90;;;;;;5027985;28;20048;-65
2023/07/30 05:06:20;;;;;;;10.30;7.10;;;15.40;99.90;;;;;;5039815;28;20029;-65
2023/07/30 05:08:46;;;;;;;10.38;7.03;;;15.40;99.90;;;;;;5035738;28;20750;-64
2023/07/30 05:11:11;;;;;;;9.90;7.30;;;15.50;99.90;;;;;;5025894;28;20021;-66
2023/07/30 05:13:37;;;;;;;11.15;7.35;;;15.50;99.90;;;;;;5025871;28;20078;-63
2023/07/30 05:16:03;;;;;;;10.40;7.28;;;15.60;99.90;;;;;;5021093;28;20014;-64
2023/07/30 05:18:28;;;;;;;7.75;6.95;;;15.60;99.90;;;;;;5026269;28;20033;-63
2023/07/30 05:20:55;;;;;;;9.35;7.30;;;15.70;99.90;;;;;;5026442;28;20119;-65
2023/07/30 05:23:20;;;;;;;8.18;6.82;;;15.70;99.90;;;;;;5027304;28;20053;-65
2023/07/30 05:25:46;;;;;;;8.13;6.70;;;15.70;99.90;;;;;;5022942;28;20025;-63
2023/07/30 05:28:12;;;;;;;8.18;6.95;;;15.80;99.90;;;;;;5025953;28;20480;-63
2023/07/30 05:30:38;;;;;;;8.18;7.05;;;15.80;99.90;;;;;;5026004;28;20063;-63
2023/07/30 05:33:04;;;;;;;7.85;6.72;;;15.80;99.90;;;;;;5030270;28;20033;-63
2023/07/30 05:35:30;;;;;;;10.60;6.75;;;15.80;99.90;;;;;;5026395;28;20096;-65
2023/07/30 05:37:55;;;;;;;7.18;6.47;;;15.90;99.90;;;;;;5030379;28;20021;-64
2023/07/30 05:40:21;;;;;;;14.98;7.80;;;15.90;99.90;;;;;;5029538;28;20030;-63
2023/07/30 05:42:47;;;;;;;12.38;6.53;;;16.00;99.90;;;;;;5027624;28;20032;-63
2023/07/30 05:45:13;;;;;;;11.77;7.25;;;15.90;99.90;;;;;;5024198;28;20428;-64
2023/07/30 05:47:38;;;;;;;13.23;7.53;;;16.00;99.90;;;;;;5026204;28;20028;-64
2023/07/30 05:50:05;;;;;;;11.10;6.38;;;16.10;99.90;;;;;;5024721;28;20044;-64
2023/07/30 05:52:30;;;;;;;7.28;5.78;;;16.10;99.90;;;;;;5025535;28;20029;-63
2023/07/30 05:54:56;;;;;;;11.57;5.93;;;16.20;99.90;;;;;;5028524;28;20033;-64
2023/07/30 05:57:21;;;;;;;17.45;7.65;;;16.20;99.90;;;;;;5027510;28;20557;-64
2023/07/30 05:59:47;;;;;;;10.68;6.30;;;16.20;99.90;;;;;;5023040;28;20489;-63
2023/07/30 06:02:12;;;;;;;7.82;6.28;;;16.30;99.90;;;;;;5025342;28;20044;-64
2023/07/30 06:04:38;;;;;;;9.05;5.95;;;16.30;99.90;;;;;;5027874;28;20033;-63
2023/07/30 06:07:04;;;;;;;12.73;6.55;;;16.40;99.90;;;;;;5025584;28;20029;-64
2023/07/30 06:09:29;;;;;;;9.50;6.30;;;16.40;99.90;;;;;;5025018;28;20040;-64
2023/07/30 06:12:00;;;;;;;9.15;5.60;;;16.40;99.90;;;;;;5028873;28;20087;-64
2023/07/30 06:14:26;;;;;;;12.10;5.95;;;16.40;99.90;;;;;;5029988;28;20162;-64
2023/07/30 06:16:53;;;;;;;13.02;5.85;;;16.50;99.90;;;;;;5025612;28;20511;-64
2023/07/30 06:19:19;;;;;;;9.73;5.93;;;16.40;99.90;;;;;;5027849;28;20029;-65
2023/07/30 06:21:45;;;;;;;16.48;6.68;;;16.50;99.90;;;;;;5029223;28;20032;-65
2023/07/30 06:24:10;;;;;;;13.05;6.70;;;16.50;99.90;;;;;;5029052;28;20202;-64
2023/07/30 06:26:36;;;;;;;9.77;6.00;;;16.60;99.90;;;;;;5030237;28;20036;-65
2023/07/30 06:29:02;;;;;;;11.80;7.35;;;16.70;99.90;;;;;;5031076;28;20425;-64
2023/07/30 06:31:27;;;;;;;6.57;5.93;;;16.60;99.90;;;;;;5029744;28;20046;-64
2023/07/30 06:33:53;;;;;;;10.05;6.65;;;16.70;99.90;;;;;;5039120;28;20109;-65
2023/07/30 06:36:18;;;;;;;11.80;6.55;;;16.70;99.90;;;;;;5033885;28;20490;-65
2023/07/30 06:38:44;;;;;;;8.85;6.60;;;16.80;99.90;;;;;;5029099;28;20657;-65
2023/07/30 06:41:09;;;;;;;10.98;5.70;;;16.90;99.90;;;;;;5030658;28;20031;-65
2023/07/30 06:43:35;;;;;;;13.32;7.75;;;16.90;99.90;;;;;;5028348;28;20053;-67
2023/07/30 06:46:01;;;;;;;15.82;7.10;;;16.90;99.90;;;;;;5029316;28;20699;-65
2023/07/30 06:48:26;;;;;;;11.25;7.25;;;16.90;99.90;;;;;;5025893;28;20026;-66
2023/07/30 06:50:52;;;;;;;9.43;7.35;;;17.00;99.90;;;;;;5029310;28;20108;-66
2023/07/30 06:53:17;;;;;;;13.10;7.00;;;17.00;99.90;;;;;;5027690;28;20419;-67
2023/07/30 06:55:43;;;;;;;15.05;7.90;;;17.10;99.90;;;;;;5027390;28;20105;-66
2023/07/30 06:58:10;;;;;;;13.13;7.57;;;17.20;99.90;;;;;;5028770;28;20614;-67
2023/07/30 07:00:35;;;;;;;13.30;7.53;;;17.30;99.90;;;;;;5033505;28;20068;-65
2023/07/30 07:03:01;;;;;;;14.23;8.27;;;17.30;99.90;;;;;;5032108;28;20072;-66
2023/07/30 07:05:26;;;;;;;15.48;9.35;;;17.30;99.90;;;;;;5024877;28;20104;-66
2023/07/30 07:07:52;;;;;;;13.75;9.55;;;17.40;99.90;;;;;;5028010;28;20029;-66
2023/07/30 07:10:17;;;;;;;13.52;9.68;;;17.50;99.90;;;;;;5027379;28;20036;-67
2023/07/30 07:12:43;;;;;;;16.20;10.05;;;17.50;99.90;;;;;;5027282;28;20040;-66
2023/07/30 07:15:09;;;;;;;13.80;9.35;;;17.50;99.90;;;;;;5026930;28;20029;-66
2023/07/30 07:17:35;;;;;;;11.85;8.93;;;17.50;99.90;;;;;;5025651;28;20267;-67
2023/07/30 07:20:00;;;;;;;17.20;9.32;;;17.40;99.90;;;;;;5028083;28;20013;-66
2023/07/30 07:22:26;;;;;;;12.45;8.98;;;17.40;99.90;;;;;;5019173;28;20033;-66
2023/07/30 07:24:52;;;;;;;10.88;8.82;;;17.40;99.90;;;;;;5033848;28;20041;-66
2023/07/30 07:27:18;;;;;;;16.15;9.55;;;17.50;99.90;;;;;;5026022;28;20060;-67
2023/07/30 07:29:44;;;;;;;16.13;11.52;;;17.50;99.90;;;;;;5026401;28;20057;-66
2023/07/30 07:32:10;;;;;;;18.27;11.63;;;17.70;99.90;;;;;;5029250;28;20072;-66
2023/07/30 07:34:35;;;;;;;17.63;10.88;;;17.70;99.90;;;;;;5027485;28;20025;-65
2023/07/30 07:37:01;;;;;;;15.63;10.82;;;17.80;99.90;;;;;;5030134;28;20033;-65
2023/07/30 07:39:27;;;;;;;17.83;11.40;;;17.80;99.90;;;;;;5034624;28;20415;-66
2023/07/30 07:41:53;;;;;;;15.13;9.60;;;17.90;99.90;;;;;;5030840;28;20044;-66
2023/07/30 07:44:18;;;;;;;17.15;9.50;;;17.90;99.90;;;;;;5029945;28;20022;-66
2023/07/30 07:46:44;;;;;;;17.73;9.85;;;18.00;99.90;;;;;;5027554;28;20066;-66
2023/07/30 07:49:09;;;;;;;13.30;9.60;;;18.10;99.90;;;;;;5026644;28;20021;-67
2023/07/30 07:51:35;;;;;;;17.23;10.43;;;18.20;99.90;;;;;;5028688;28;20382;-67
2023/07/30 07:54:00;;;;;;;14.25;9.35;;;18.40;99.90;;;;;;5025531;28;20033;-67
2023/07/30 07:56:26;;;;;;;12.38;9.50;;;18.50;99.90;;;;;;5027858;28;20065;-67
2023/07/30 07:58:52;;;;;;;13.95;8.43;;;18.50;99.90;;;;;;5028360;28;20484;-66
2023/07/30 08:01:17;;;;;;;18.35;9.07;;;18.70;99.90;;;;;;5027000;28;20049;-67
2023/07/30 08:03:44;;;;;;;13.85;9.25;;;18.80;99.90;;;;;;5041520;28;20032;-68
2023/07/30 08:06:10;;;;;;;15.20;9.10;;;18.90;99.90;;;;;;5027521;28;20029;-66
2023/07/30 08:08:35;;;;;;;12.02;8.05;;;19.00;99.90;;;;;;5026451;28;20029;-67
2023/07/30 08:11:07;;;;;;;11.18;7.95;;;19.00;99.90;;;;;;5026991;28;20111;-66
2023/07/30 08:13:34;;;;;;;12.15;8.10;;;19.10;99.90;;;;;;5032027;28;20033;-68
2023/07/30 08:15:59;;;;;;;19.83;8.93;;;19.10;99.90;;;;;;5032414;28;20017;-68
2023/07/30 08:18:26;;;;;;;18.88;8.10;;;19.20;99.90;;;;;;5029617;28;21537;-67
2023/07/30 08:20:51;;;;;;;14.88;6.57;;;19.30;99.90;;;;;;5025726;28;20029;-67
2023/07/30 08:23:17;;;;;;;11.50;6.32;;;19.40;99.90;;;;;;5025326;28;20457;-67
2023/07/30 08:25:42;;;;;;;14.30;7.22;;;19.50;99.90;;;;;;5041799;28;20057;-67
2023/07/30 08:28:08;;;;;;;15.82;6.85;;;19.60;99.90;;;;;;5028515;28;20021;-65
2023/07/30 08:30:34;;;;;;;14.55;5.82;;;19.70;99.90;;;;;;5027589;28;20033;-65
2023/07/30 08:33:01;;;;;;;15.13;5.80;;;19.80;99.90;;;;;;5025810;28;20014;-66
2023/07/30 08:35:26;;;;;;;15.10;6.03;;;20.00;99.90;;;;;;5023521;28;20125;-66
2023/07/30 08:37:52;;;;;;;10.80;5.88;;;20.10;99.90;;;;;;5024973;28;20101;-65
2023/07/30 08:40:20;;;;;;;11.95;5.95;;;20.00;99.90;;;;;;5030418;28;20406;-65
2023/07/30 08:42:46;;;;;;;11.85;5.93;;;20.00;99.90;;;;;;5027139;28;20160;-65
2023/07/30 08:45:11;;;;;;;9.35;5.40;;;20.10;99.90;;;;;;5028739;28;20060;-66
2023/07/30 08:47:40;;;;;;;9.90;5.68;;;20.20;99.90;;;;;;5025124;28;20030;-65
2023/07/30 08:50:06;;;;;;;8.55;5.70;;;20.30;99.90;;;;;;5025317;28;20024;-65
2023/07/30 08:52:34;;;;;;;8.32;5.63;;;20.40;99.90;;;;;;5025838;28;20021;-65
2023/07/30 08:55:01;;;;;;;9.13;5.85;;;20.50;99.90;;;;;;5023026;28;20448;-65
2023/07/30 08:57:31;;;;;;;10.07;5.78;;;20.60;99.90;;;;;;5026126;28;20025;-65
2023/07/30 09:00:09;;;;;;;13.10;7.20;;;20.70;99.90;;;;;;5027123;28;20021;-64
2023/07/30 09:02:39;;;;;;;13.43;6.57;;;20.60;99.90;;;;;;5025051;28;20672;-63
2023/07/30 09:05:06;;;;;;;10.77;6.15;;;20.50;99.90;;;;;;5019082;28;20022;-64
2023/07/30 09:07:31;;;;;;;9.60;5.75;;;20.40;99.90;;;;;;5026102;28;20434;-63
2023/07/30 09:09:59;;;;;;;14.52;6.07;;;20.30;99.90;;;;;;5025809;28;20013;-64
2023/07/30 09:12:32;;;;;;;11.55;5.53;;;20.30;99.90;;;;;;5026219;28;20500;-64
2023/07/30 09:14:58;;;;;;;9.20;5.60;;;20.30;99.90;;;;;;5018443;28;20029;-63
2023/07/30 09:17:25;;;;;;;10.07;4.88;;;20.30;99.90;;;;;;5024882;28;20052;-63
2023/07/30 09:19:52;;;;;;;10.43;4.75;;;20.30;99.90;;;;;;5025420;28;20452;-64
2023/07/30 09:22:36;;;;;;;8.63;3.58;;;20.30;99.90;;;;;;5025986;28;20045;-63
2023/07/30 09:25:03;;;;;;;13.73;4.70;;;20.30;99.90;;;;;;5028335;28;20514;-63
2023/07/30 09:27:29;;;;;;;14.00;5.10;;;20.30;99.90;;;;;;5023701;28;20040;-65
2023/07/30 09:30:04;;;;;;;6.57;4.18;;;20.30;99.90;;;;;;5025420;28;20436;-62
2023/07/30 09:32:32;;;;;;;8.25;3.38;;;20.30;99.90;;;;;;5024395;28;20193;-64
2023/07/30 09:35:08;;;;;;;7.72;3.50;;;20.30;99.90;;;;;;5021911;28;20045;-63
2023/07/30 09:37:38;;;;;;;6.82;3.88;;;20.40;99.90;;;;;;5026430;28;20033;-64
2023/07/30 09:40:12;;;;;;;7.45;3.95;;;20.40;99.90;;;;;;5028395;28;20025;-62
2023/07/30 09:42:39;;;;;;;18.60;3.60;;;20.40;99.90;;;;;;5029284;28;20067;-62
2023/07/30 09:45:09;;;;;;;11.98;3.60;;;20.40;99.90;;;;;;5025020;28;20526;-64
2023/07/30 09:47:38;;;;;;;11.40;3.58;;;20.50;99.90;;;;;;5041297;28;20029;-63
2023/07/30 09:50:04;;;;;;;7.50;3.65;;;20.50;99.90;;;;;;5024248;28;20017;-66
2023/07/30 09:52:30;;;;;;;8.95;4.07;;;20.40;99.90;;;;;;5025643;28;20188;-64
2023/07/30 09:54:57;;;;;;;3.88;3.03;;;20.30;99.90;;;;;;5024412;28;20569;-63
2023/07/30 09:57:23;;;;;;;9.00;3.22;;;20.30;99.90;;;;;;5025439;28;20643;-63
2023/07/30 09:59:49;;;;;;;10.65;3.88;;;20.30;99.90;;;;;;5016826;28;20291;-64
2023/07/30 10:02:16;;;;;;;8.10;3.58;;;20.20;99.90;;;;;;5026318;28;20041;-63
2023/07/30 10:04:46;;;;;;;10.05;3.30;;;20.20;99.90;;;;;;5026482;28;20094;-63
2023/07/30 10:07:17;;;;;;;6.75;3.78;;;20.20;99.90;;;;;;5024900;28;20079;-63
2023/07/30 10:09:45;;;;;;;7.35;4.28;;;20.20;99.90;;;;;;5022304;28;20108;-63
2023/07/30 10:12:20;;;;;;;11.10;5.32;;;20.20;99.90;;;;;;5025281;28;20561;-62
2023/07/30 10:14:47;;;;;;;9.17;4.70;;;20.30;99.90;;;;;;5021467;28;20477;-62
2023/07/30 10:17:12;;;;;;;10.98;5.03;;;20.40;99.90;;;;;;5023993;28;20048;-62
2023/07/30 10:19:38;;;;;;;11.38;4.57;;;20.60;99.90;;;;;;5025023;28;20030;-64
2023/07/30 10:22:13;;;;;;;11.23;4.80;;;20.70;99.90;;;;;;5025298;28;20091;-65
2023/07/30 10:24:40;;;;;;;9.60;4.80;;;20.70;99.90;;;;;;5021442;28;20036;-64
2023/07/30 10:27:07;;;;;;;7.15;5.03;;;20.80;99.90;;;;;;5025607;28;20047;-64
2023/07/30 10:29:35;;;;;;;8.70;4.65;;;20.70;99.90;;;;;;5028277;28;20064;-63
2023/07/30 10:32:02;;;;;;;7.07;5.07;;;20.60;99.90;;;;;;5023554;28;20026;-64
2023/07/30 10:34:44;;;;;;;6.85;4.70;;;20.40;99.90;;;;;;5023578;28;20032;-63
2023/07/30 10:37:10;;;;;;;8.43;4.85;;;20.30;99.90;;;;;;5025353;28;20026;-63
2023/07/30 10:39:35;;;;;;;6.60;4.25;;;20.30;99.90;;;;;;5024977;28;20105;-64
2023/07/30 10:42:03;;;;;;;7.57;4.30;;;20.40;99.90;;;;;;5025025;28;20022;-63
2023/07/30 10:44:31;;;;;;;8.23;4.78;;;20.50;99.90;;;;;;5023354;28;20017;-63
2023/07/30 10:46:58;;;;;;;9.05;4.65;;;20.50;99.90;;;;;;5029328;28;20092;-64
2023/07/30 10:49:25;;;;;;;7.55;4.53;;;20.60;99.90;;;;;;5019980;28;20026;-64
2023/07/30 10:51:52;;;;;;;5.93;3.50;;;20.60;99.90;;;;;;5024904;28;20021;-61
2023/07/30 10:54:19;;;;;;;5.68;3.85;;;20.50;99.90;;;;;;5023588;28;20026;-63
2023/07/30 10:56:45;;;;;;;6.75;3.95;;;20.40;99.90;;;;;;5025158;28;20033;-63
2023/07/30 10:59:14;;;;;;;7.50;4.80;;;20.30;99.90;;;;;;5028428;28;20070;-65
2023/07/30 11:01:42;;;;;;;11.77;4.75;;;20.20;99.90;;;;;;5029694;28;20037;-64
2023/07/30 11:04:14;;;;;;;13.48;5.45;;;20.10;99.90;;;;;;5032277;28;20071;-65
2023/07/30 11:06:44;;;;;;;11.18;5.47;;;20.00;99.90;;;;;;5026958;28;20526;-65
2023/07/30 11:09:22;;;;;;;10.43;5.28;;;20.10;99.90;;;;;;5028017;28;20056;-66
2023/07/30 11:11:49;;;;;;;10.45;5.95;;;20.00;99.90;;;;;;5029102;28;20021;-65
2023/07/30 11:14:19;;;;;;;7.28;4.68;;;20.10;99.90;;;;;;5027003;28;20048;-65
2023/07/30 11:16:50;;;;;;;9.07;3.65;;;20.10;99.90;;;;;;5028923;28;20048;-66
2023/07/30 11:19:17;;;;;;;10.40;3.83;;;20.10;99.90;;;;;;5028789;28;20040;-65
2023/07/30 11:21:47;;;;;;;6.97;3.60;;;20.10;99.90;;;;;;5032012;28;20079;-65
2023/07/30 11:24:13;;;;;;;7.03;3.35;;;20.10;99.90;;;;;;5022884;28;20028;-65
2023/07/30 11:26:38;;;;;;;4.30;2.35;;;20.00;99.90;;;;;;5025574;28;20021;-66
2023/07/30 11:29:20;;;;;;;4.82;2.45;;;20.10;99.90;;;;;;5029138;28;20034;-65
2023/07/30 11:31:46;;;;;;;6.18;1.90;;;20.10;99.90;;;;;;5021350;28;20121;-65
2023/07/30 11:34:14;;;;;;;3.70;1.88;;;20.10;99.90;;;;;;5027374;28;20026;-63
2023/07/30 11:36:41;;;;;;;8.25;1.73;;;20.10;99.90;;;;;;5022313;28;20112;-65
2023/07/30 11:39:07;;;;;;;3.80;1.98;;;20.20;99.90;;;;;;5030890;28;20064;-64
2023/07/30 11:41:33;;;;;;;4.40;2.40;;;20.20;99.90;;;;;;5025835;28;20052;-64
2023/07/30 11:43:59;;;;;;;5.03;1.88;;;20.30;99.90;;;;;;5027452;28;20017;-63
2023/07/30 11:46:25;;;;;;;3.30;1.63;;;20.50;99.90;;;;;;5027439;28;20542;-64
2023/07/30 11:48:53;;;;;;;2.85;1.58;;;20.60;99.90;;;;;;5028208;28;20037;-64
2023/07/30 11:51:24;;;;;;;5.32;1.58;;;20.60;99.90;;;;;;5026206;28;20036;-64
2023/07/30 11:53:56;;;;;;;4.90;1.55;;;20.70;99.90;;;;;;5019018;28;20025;-62
2023/07/30 11:56:24;;;;;;;5.32;1.80;;;20.70;99.90;;;;;;5021993;28;20512;-64
2023/07/30 11:58:53;;;;;;;4.53;2.20;;;20.70;99.90;;;;;;5022016;28;20021;-64
2023/07/30 12:01:19;;;;;;;4.85;1.40;;;20.70;99.90;;;;;;5027048;28;20131;-63
2023/07/30 12:03:45;;;;;;;7.65;2.10;;;20.80;99.90;;;;;;5025949;28;20575;-63
2023/07/30 12:06:12;;;;;;;5.95;1.77;;;20.80;99.90;;;;;;5035684;28;20029;-65
2023/07/30 12:08:38;;;;;;;4.93;2.00;;;20.80;99.90;;;;;;5027737;28;20478;-64
2023/07/30 12:11:05;;;;;;;3.97;1.80;;;20.70;99.90;;;;;;5031927;28;20027;-64
2023/07/30 12:13:31;;;;;;;7.32;1.70;;;20.80;99.90;;;;;;5027203;28;20438;-63
2023/07/30 12:15:58;;;;;;;6.30;1.92;;;20.70;99.90;;;;;;5025341;28;20018;-63
2023/07/30 12:18:27;;;;;;;5.18;1.95;;;20.70;99.90;;;;;;5022947;28;20034;-63
2023/07/30 12:20:54;;;;;;;4.60;1.83;;;20.90;99.90;;;;;;5019290;28;20025;-63
2023/07/30 12:23:20;;;;;;;5.45;1.80;;;20.90;99.90;;;;;;5023859;28;20022;-63
2023/07/30 12:25:46;;;;;;;6.10;1.63;;;20.90;99.90;;;;;;5025671;28;20068;-63
2023/07/30 12:28:13;;;;;;;6.25;2.08;;;20.80;99.90;;;;;;5026757;28;20120;-65
2023/07/30 12:30:39;;;;;;;4.32;1.50;;;20.90;99.90;;;;;;5027127;28;20030;-63
2023/07/30 12:33:05;;;;;;;3.70;1.98;;;21.00;99.90;;;;;;5029886;28;20025;-64
2023/07/30 12:35:32;;;;;;;4.45;1.92;;;21.10;99.90;;;;;;5025622;28;20017;-64
2023/07/30 12:37:58;;;;;;;3.80;1.80;;;21.10;99.90;;;;;;5025747;28;20028;-63
2023/07/30 12:40:24;;;;;;;7.30;2.58;;;21.00;99.90;;;;;;5028694;28;20036;-64